createdAt,value
2018-02-04T00:00:42.042Z,999.73
2018-02-04T00:01:41.974Z,999.73
2018-02-04T00:02:41.906Z,999.73
2018-02-04T00:03:41.838Z,999.73
2018-02-04T00:04:41.769Z,999.78
2018-02-04T00:05:41.701Z,999.76
2018-02-04T00:06:41.633Z,999.77
2018-02-04T00:07:41.565Z,999.81
2018-02-04T00:08:41.496Z,999.81
2018-02-04T00:09:41.428Z,999.85
2018-02-04T00:10:41.360Z,999.86
2018-02-04T00:11:41.291Z,999.81
2018-02-04T00:12:41.222Z,999.80
2018-02-04T00:13:41.155Z,999.80
2018-02-04T00:14:41.086Z,999.78
2018-02-04T00:15:41.020Z,999.81
2018-02-04T00:16:40.949Z,999.79
2018-02-04T00:17:40.880Z,999.81
2018-02-04T00:18:40.813Z,999.79
2018-02-04T00:19:40.745Z,999.80
2018-02-04T00:20:40.677Z,999.80
2018-02-04T00:21:40.609Z,999.82
2018-02-04T00:22:40.544Z,999.84
2018-02-04T00:23:40.473Z,999.82
2018-02-04T00:24:40.403Z,999.87
2018-02-04T00:25:40.336Z,999.83
2018-02-04T00:26:40.266Z,999.86
2018-02-04T00:27:40.199Z,999.88
2018-02-04T00:28:40.132Z,999.89
2018-02-04T00:29:40.061Z,999.91
2018-02-04T00:30:39.994Z,999.88
2018-02-04T00:31:39.925Z,999.89
2018-02-04T00:32:39.858Z,999.89
2018-02-04T00:33:39.788Z,999.89
2018-02-04T00:34:39.720Z,999.90
2018-02-04T00:35:39.651Z,999.86
2018-02-04T00:36:39.583Z,999.88
2018-02-04T00:37:39.516Z,999.90
2018-02-04T00:38:39.448Z,999.88
2018-02-04T00:39:39.378Z,999.84
2018-02-04T00:40:39.311Z,999.87
2018-02-04T00:41:39.243Z,999.87
2018-02-04T00:42:39.173Z,999.87
2018-02-04T00:43:39.106Z,999.91
2018-02-04T00:44:39.036Z,999.89
2018-02-04T00:45:38.968Z,999.91
2018-02-04T00:46:38.901Z,999.92
2018-02-04T00:47:38.832Z,999.92
2018-02-04T00:48:38.763Z,999.94
2018-02-04T00:49:38.694Z,999.98
2018-02-04T00:50:38.628Z,999.94
2018-02-04T00:51:38.559Z,1000.01
2018-02-04T00:52:38.489Z,1000.01
2018-02-04T00:53:38.421Z,1000.03
2018-02-04T00:54:38.354Z,999.97
2018-02-04T00:55:38.286Z,1000.03
2018-02-04T00:56:38.216Z,1000.03
2018-02-04T00:57:38.148Z,1000.05
2018-02-04T00:58:38.080Z,1000.08
2018-02-04T00:59:38.011Z,1000.04
2018-02-04T01:00:37.943Z,1000.09
2018-02-04T01:01:37.879Z,1000.07
2018-02-04T01:02:37.813Z,1000.11
2018-02-04T01:03:38.063Z,1000.09
2018-02-04T01:04:37.670Z,1000.14
2018-02-04T01:05:37.603Z,1000.12
2018-02-04T01:06:37.534Z,1000.13
2018-02-04T01:07:37.465Z,1000.13
2018-02-04T01:08:37.397Z,1000.14
2018-02-04T01:09:37.328Z,1000.14
2018-02-04T01:10:37.260Z,1000.14
2018-02-04T01:11:37.192Z,1000.20
2018-02-04T01:12:37.124Z,1000.20
2018-02-04T01:13:37.055Z,1000.19
2018-02-04T01:14:36.988Z,1000.17
2018-02-04T01:15:36.921Z,1000.20
2018-02-04T01:16:36.850Z,1000.23
2018-02-04T01:17:36.782Z,1000.24
2018-02-04T01:18:36.720Z,1000.26
2018-02-04T01:19:36.645Z,1000.27
2018-02-04T01:20:36.576Z,1000.27
2018-02-04T01:21:36.541Z,1000.26
2018-02-04T01:22:36.439Z,1000.27
2018-02-04T01:23:36.373Z,1000.27
2018-02-04T01:24:36.303Z,1000.26
2018-02-04T01:25:36.235Z,1000.27
2018-02-04T01:26:36.167Z,1000.32
2018-02-04T01:27:36.100Z,1000.29
2018-02-04T01:28:36.029Z,1000.33
2018-02-04T01:29:35.961Z,1000.33
2018-02-04T01:30:35.894Z,1000.36
2018-02-04T01:31:35.827Z,1000.39
2018-02-04T01:32:35.756Z,1000.37
2018-02-04T01:33:35.689Z,1000.41
2018-02-04T01:34:35.625Z,1000.42
2018-02-04T01:35:35.555Z,1000.43
2018-02-04T01:36:35.483Z,1000.44
2018-02-04T01:37:35.415Z,1000.37
2018-02-04T01:38:35.347Z,1000.44
2018-02-04T01:39:35.291Z,1000.44
2018-02-04T01:40:35.211Z,1000.45
2018-02-04T01:41:35.141Z,1000.45
2018-02-04T01:42:35.074Z,1000.47
2018-02-04T01:43:35.006Z,1000.47
2018-02-04T01:44:34.937Z,1000.51
2018-02-04T01:45:34.874Z,1000.50
2018-02-04T01:46:34.801Z,1000.50
2018-02-04T01:47:34.733Z,1000.53
2018-02-04T01:48:34.664Z,1000.50
2018-02-04T01:49:34.596Z,1000.48
2018-02-04T01:50:34.529Z,1000.40
2018-02-04T01:51:34.460Z,1000.52
2018-02-04T01:52:34.392Z,1000.47
2018-02-04T01:53:34.323Z,1000.46
2018-02-04T01:54:34.255Z,1000.49
2018-02-04T01:55:34.186Z,1000.44
2018-02-04T01:56:34.118Z,1000.46
2018-02-04T01:57:34.054Z,1000.43
2018-02-04T01:58:33.983Z,1000.44
2018-02-04T01:59:33.914Z,1000.44
2018-02-04T02:00:33.846Z,1000.45
2018-02-04T02:01:33.777Z,1000.44
2018-02-04T02:02:33.708Z,1000.44
2018-02-04T02:03:33.641Z,1000.47
2018-02-04T02:04:33.572Z,1000.43
2018-02-04T02:05:33.503Z,1000.46
2018-02-04T02:06:33.436Z,1000.51
2018-02-04T02:07:33.368Z,1000.49
2018-02-04T02:08:33.299Z,1000.53
2018-02-04T02:09:33.231Z,1000.49
2018-02-04T02:10:33.163Z,1000.53
2018-02-04T02:11:33.096Z,1000.55
2018-02-04T02:12:33.025Z,1000.54
2018-02-04T02:13:32.957Z,1000.57
2018-02-04T02:14:32.889Z,1000.57
2018-02-04T02:15:32.821Z,1000.58
2018-02-04T02:16:32.751Z,1000.65
2018-02-04T02:17:32.684Z,1000.63
2018-02-04T02:18:32.620Z,1000.62
2018-02-04T02:19:32.548Z,1000.62
2018-02-04T02:20:32.481Z,1000.62
2018-02-04T02:21:32.411Z,1000.66
2018-02-04T02:22:32.344Z,1000.65
2018-02-04T02:23:32.275Z,1000.69
2018-02-04T02:24:32.205Z,1000.73
2018-02-04T02:25:32.138Z,1000.72
2018-02-04T02:26:32.069Z,1000.76
2018-02-04T02:27:32.002Z,1000.76
2018-02-04T02:28:31.932Z,1000.81
2018-02-04T02:29:31.864Z,1000.82
2018-02-04T02:30:31.797Z,1000.81
2018-02-04T02:31:31.728Z,1000.80
2018-02-04T02:32:31.659Z,1000.85
2018-02-04T02:33:31.590Z,1000.85
2018-02-04T02:34:31.521Z,1000.85
2018-02-04T02:35:31.454Z,1000.86
2018-02-04T02:36:31.385Z,1000.83
2018-02-04T02:37:31.317Z,1000.88
2018-02-04T02:38:31.249Z,1000.84
2018-02-04T02:39:31.180Z,1000.86
2018-02-04T02:40:31.112Z,1000.87
2018-02-04T02:41:31.093Z,1000.88
2018-02-04T02:42:30.975Z,1000.89
2018-02-04T02:43:30.907Z,1000.90
2018-02-04T02:44:30.837Z,1000.86
2018-02-04T02:45:30.770Z,1000.91
2018-02-04T02:46:30.701Z,1000.94
2018-02-04T02:47:30.655Z,1000.91
2018-02-04T02:48:30.564Z,1000.95
2018-02-04T02:49:30.495Z,1000.96
2018-02-04T02:50:30.427Z,1000.99
2018-02-04T02:51:30.360Z,1000.98
2018-02-04T02:52:30.290Z,1000.95
2018-02-04T02:53:30.222Z,1000.93
2018-02-04T02:54:30.153Z,1000.96
2018-02-04T02:55:30.086Z,1000.93
2018-02-04T02:56:30.016Z,1000.95
2018-02-04T02:57:29.948Z,1000.95
2018-02-04T02:58:29.886Z,1000.95
2018-02-04T02:59:29.811Z,1000.93
2018-02-04T03:00:29.743Z,1000.96
2018-02-04T03:01:29.675Z,1000.97
2018-02-04T03:02:29.606Z,1000.95
2018-02-04T03:03:29.540Z,1000.96
2018-02-04T03:04:29.468Z,1001.00
2018-02-04T03:05:29.401Z,1001.02
2018-02-04T03:06:29.334Z,1000.99
2018-02-04T03:07:29.265Z,1001.05
2018-02-04T03:08:29.198Z,1001.08
2018-02-04T03:09:29.129Z,1001.02
2018-02-04T03:10:29.060Z,1001.04
2018-02-04T03:11:28.993Z,1001.03
2018-02-04T03:12:28.923Z,1001.05
2018-02-04T03:13:28.854Z,1001.04
2018-02-04T03:14:28.787Z,1001.04
2018-02-04T03:15:28.718Z,1001.06
2018-02-04T03:16:28.649Z,1001.08
2018-02-04T03:17:28.581Z,1001.04
2018-02-04T03:18:28.514Z,1001.05
2018-02-04T03:19:28.447Z,1001.03
2018-02-04T03:20:28.378Z,1001.02
2018-02-04T03:21:28.307Z,1001.03
2018-02-04T03:22:28.239Z,1001.04
2018-02-04T03:23:28.172Z,1001.04
2018-02-04T03:24:28.102Z,1001.04
2018-02-04T03:25:28.035Z,1001.05
2018-02-04T03:26:27.968Z,1001.06
2018-02-04T03:27:27.898Z,1001.09
2018-02-04T03:28:27.831Z,1001.07
2018-02-04T03:29:27.761Z,1001.08
2018-02-04T03:30:27.695Z,1001.06
2018-02-04T03:31:27.626Z,1001.08
2018-02-04T03:32:27.555Z,1001.10
2018-02-04T03:33:27.489Z,1001.12
2018-02-04T03:34:27.423Z,1001.11
2018-02-04T03:35:27.351Z,1001.14
2018-02-04T03:36:27.286Z,1001.15
2018-02-04T03:37:27.213Z,1001.16
2018-02-04T03:38:27.146Z,1001.17
2018-02-04T03:39:27.081Z,1001.16
2018-02-04T03:40:27.009Z,1001.19
2018-02-04T03:41:26.941Z,1001.19
2018-02-04T03:42:26.872Z,1001.18
2018-02-04T03:43:26.804Z,1001.25
2018-02-04T03:44:26.735Z,1001.28
2018-02-04T03:45:26.666Z,1001.27
2018-02-04T03:46:26.598Z,1001.27
2018-02-04T03:47:26.530Z,1001.29
2018-02-04T03:48:26.463Z,1001.31
2018-02-04T03:49:26.393Z,1001.36
2018-02-04T03:50:26.325Z,1001.39
2018-02-04T03:51:26.579Z,1001.39
2018-02-04T03:52:26.188Z,1001.41
2018-02-04T03:53:26.120Z,1001.40
2018-02-04T03:54:26.051Z,1001.45
2018-02-04T03:55:25.983Z,1001.46
2018-02-04T03:56:25.913Z,1001.46
2018-02-04T03:57:25.845Z,1001.49
2018-02-04T03:58:25.778Z,1001.53
2018-02-04T03:59:25.707Z,1001.53
2018-02-04T04:00:25.646Z,1001.52
2018-02-04T04:01:25.570Z,1001.55
2018-02-04T04:02:25.504Z,1001.56
2018-02-04T04:03:25.434Z,1001.54
2018-02-04T04:04:25.371Z,1001.56
2018-02-04T04:05:25.296Z,1001.54
2018-02-04T04:06:25.228Z,1001.54
2018-02-04T04:07:25.160Z,1001.52
2018-02-04T04:08:25.091Z,1001.50
2018-02-04T04:09:25.029Z,1001.51
2018-02-04T04:10:24.955Z,1001.49
2018-02-04T04:11:24.886Z,1001.47
2018-02-04T04:12:24.817Z,1001.50
2018-02-04T04:13:24.752Z,1001.51
2018-02-04T04:14:24.681Z,1001.53
2018-02-04T04:15:24.613Z,1001.51
2018-02-04T04:16:24.542Z,1001.53
2018-02-04T04:17:24.475Z,1001.49
2018-02-04T04:18:24.406Z,1001.53
2018-02-04T04:19:24.339Z,1001.50
2018-02-04T04:20:24.270Z,1001.56
2018-02-04T04:21:24.201Z,1001.55
2018-02-04T04:22:24.133Z,1001.58
2018-02-04T04:23:24.065Z,1001.59
2018-02-04T04:24:23.998Z,1001.58
2018-02-04T04:25:23.927Z,1001.58
2018-02-04T04:26:23.858Z,1001.60
2018-02-04T04:27:23.790Z,1001.59
2018-02-04T04:28:23.722Z,1001.58
2018-02-04T04:29:23.656Z,1001.60
2018-02-04T04:30:23.586Z,1001.61
2018-02-04T04:31:23.517Z,1001.62
2018-02-04T04:32:23.448Z,1001.65
2018-02-04T04:33:23.380Z,1001.65
2018-02-04T04:34:23.312Z,1001.63
2018-02-04T04:35:23.243Z,1001.65
2018-02-04T04:36:23.183Z,1001.64
2018-02-04T04:37:23.106Z,1001.61
2018-02-04T04:38:23.036Z,1001.65
2018-02-04T04:39:22.971Z,1001.64
2018-02-04T04:40:22.900Z,1001.62
2018-02-04T04:41:22.831Z,1001.66
2018-02-04T04:42:22.765Z,1001.68
2018-02-04T04:43:22.696Z,1001.65
2018-02-04T04:44:22.629Z,1001.64
2018-02-04T04:45:22.559Z,1001.68
2018-02-04T04:46:22.490Z,1001.72
2018-02-04T04:47:22.423Z,1001.71
2018-02-04T04:48:22.353Z,1001.69
2018-02-04T04:49:22.284Z,1001.75
2018-02-04T04:50:22.216Z,1001.72
2018-02-04T04:51:22.148Z,1001.76
2018-02-04T04:52:22.079Z,1001.76
2018-02-04T04:53:22.012Z,1001.73
2018-02-04T04:54:21.943Z,1001.79
2018-02-04T04:55:21.875Z,1001.76
2018-02-04T04:56:21.805Z,1001.77
2018-02-04T04:57:21.737Z,1001.74
2018-02-04T04:58:21.669Z,1001.74
2018-02-04T04:59:21.601Z,1001.80
2018-02-04T05:00:21.532Z,1001.83
2018-02-04T05:01:21.464Z,1001.85
2018-02-04T05:02:21.397Z,1001.88
2018-02-04T05:03:21.327Z,1001.84
2018-02-04T05:04:21.258Z,1001.84
2018-02-04T05:05:21.190Z,1001.80
2018-02-04T05:06:21.122Z,1001.82
2018-02-04T05:07:21.054Z,1001.87
2018-02-04T05:08:20.985Z,1001.84
2018-02-04T05:09:20.916Z,1001.89
2018-02-04T05:10:20.848Z,1001.86
2018-02-04T05:11:20.781Z,1001.93
2018-02-04T05:12:20.710Z,1001.89
2018-02-04T05:13:20.642Z,1001.94
2018-02-04T05:14:20.579Z,1001.91
2018-02-04T05:15:20.509Z,1001.94
2018-02-04T05:16:20.439Z,1001.94
2018-02-04T05:17:20.369Z,1001.91
2018-02-04T05:18:20.301Z,1001.96
2018-02-04T05:19:20.233Z,1001.94
2018-02-04T05:20:20.164Z,1001.98
2018-02-04T05:21:20.096Z,1001.97
2018-02-04T05:22:20.029Z,1001.99
2018-02-04T05:23:19.959Z,1001.97
2018-02-04T05:24:19.892Z,1001.99
2018-02-04T05:25:19.821Z,1002.02
2018-02-04T05:26:19.756Z,1002.09
2018-02-04T05:27:19.685Z,1002.10
2018-02-04T05:28:19.616Z,1002.10
2018-02-04T05:29:19.547Z,1002.11
2018-02-04T05:30:19.480Z,1002.13
2018-02-04T05:31:19.411Z,1002.13
2018-02-04T05:32:19.393Z,1002.14
2018-02-04T05:33:19.275Z,1002.19
2018-02-04T05:34:19.206Z,1002.14
2018-02-04T05:35:19.139Z,1002.16
2018-02-04T05:36:19.069Z,1002.13
2018-02-04T05:37:19.002Z,1002.21
2018-02-04T05:38:18.933Z,1002.22
2018-02-04T05:39:18.865Z,1002.26
2018-02-04T05:40:18.795Z,1002.27
2018-02-04T05:41:18.729Z,1002.28
2018-02-04T05:42:18.659Z,1002.30
2018-02-04T05:43:18.593Z,1002.31
2018-02-04T05:44:18.523Z,1002.35
2018-02-04T05:45:18.454Z,1002.35
2018-02-04T05:46:18.395Z,1002.33
2018-02-04T05:47:18.318Z,1002.34
2018-02-04T05:48:18.249Z,1002.46
2018-02-04T05:49:18.180Z,1002.44
2018-02-04T05:50:18.113Z,1002.47
2018-02-04T05:51:18.045Z,1002.48
2018-02-04T05:52:17.977Z,1002.48
2018-02-04T05:53:17.908Z,1002.51
2018-02-04T05:54:17.842Z,1002.52
2018-02-04T05:55:17.771Z,1002.52
2018-02-04T05:56:17.702Z,1002.56
2018-02-04T05:57:17.635Z,1002.51
2018-02-04T05:58:17.568Z,1002.53
2018-02-04T05:59:17.498Z,1002.57
2018-02-04T06:00:17.429Z,1002.57
2018-02-04T06:01:17.655Z,1002.58
2018-02-04T06:02:17.293Z,1002.59
2018-02-04T06:03:17.225Z,1002.61
2018-02-04T06:04:17.157Z,1002.64
2018-02-04T06:05:17.089Z,1002.67
2018-02-04T06:06:17.021Z,1002.68
2018-02-04T06:07:16.953Z,1002.70
2018-02-04T06:08:16.886Z,1002.71
2018-02-04T06:09:16.815Z,1002.72
2018-02-04T06:10:16.747Z,1002.74
2018-02-04T06:11:16.679Z,1002.77
2018-02-04T06:12:16.635Z,1002.76
2018-02-04T06:13:16.542Z,1002.80
2018-02-04T06:14:16.474Z,1002.81
2018-02-04T06:15:16.407Z,1002.84
2018-02-04T06:16:16.336Z,1002.83
2018-02-04T06:17:16.270Z,1002.87
2018-02-04T06:18:16.201Z,1002.86
2018-02-04T06:19:16.133Z,1002.86
2018-02-04T06:20:16.064Z,1002.89
2018-02-04T06:21:16.054Z,1002.87
2018-02-04T06:22:15.934Z,1002.91
2018-02-04T06:23:15.860Z,1002.92
2018-02-04T06:24:15.791Z,1002.92
2018-02-04T06:25:15.723Z,1002.95
2018-02-04T06:26:15.656Z,1002.92
2018-02-04T06:27:15.587Z,1002.96
2018-02-04T06:28:15.520Z,1002.95
2018-02-04T06:29:15.502Z,1002.94
2018-02-04T06:30:15.382Z,1002.97
2018-02-04T06:31:15.315Z,1003.00
2018-02-04T06:32:15.245Z,1003.01
2018-02-04T06:33:15.178Z,1002.98
2018-02-04T06:34:15.110Z,1003.04
2018-02-04T06:35:15.043Z,1003.07
2018-02-04T06:36:14.973Z,1003.06
2018-02-04T06:37:14.907Z,1003.08
2018-02-04T06:38:14.836Z,1003.10
2018-02-04T06:39:14.770Z,1003.13
2018-02-04T06:40:14.701Z,1003.13
2018-02-04T06:41:14.633Z,1003.16
2018-02-04T06:42:14.565Z,1003.17
2018-02-04T06:43:14.497Z,1003.15
2018-02-04T06:44:14.429Z,1003.19
2018-02-04T06:45:14.363Z,1003.19
2018-02-04T06:46:14.292Z,1003.21
2018-02-04T06:47:14.225Z,1003.16
2018-02-04T06:48:14.155Z,1003.20
2018-02-04T06:49:14.088Z,1003.24
2018-02-04T06:50:14.019Z,1003.27
2018-02-04T06:51:13.951Z,1003.27
2018-02-04T06:52:13.883Z,1003.27
2018-02-04T06:53:13.814Z,1003.28
2018-02-04T06:54:13.746Z,1003.26
2018-02-04T06:55:13.679Z,1003.32
2018-02-04T06:56:13.610Z,1003.36
2018-02-04T06:57:13.542Z,1003.33
2018-02-04T06:58:13.474Z,1003.35
2018-02-04T06:59:13.407Z,1003.29
2018-02-04T07:00:13.339Z,1003.39
2018-02-04T07:01:13.268Z,1003.33
2018-02-04T07:02:13.201Z,1003.39
2018-02-04T07:03:13.133Z,1003.40
2018-02-04T07:04:13.064Z,1003.41
2018-02-04T07:05:12.996Z,1003.47
2018-02-04T07:06:12.928Z,1003.48
2018-02-04T07:07:12.861Z,1003.51
2018-02-04T07:08:12.794Z,1003.46
2018-02-04T07:09:12.724Z,1003.51
2018-02-04T07:10:12.656Z,1003.53
2018-02-04T07:11:12.590Z,1003.55
2018-02-04T07:12:12.519Z,1003.56
2018-02-04T07:13:12.452Z,1003.57
2018-02-04T07:14:12.383Z,1003.63
2018-02-04T07:15:12.316Z,1003.66
2018-02-04T07:16:12.247Z,1003.69
2018-02-04T07:17:12.181Z,1003.69
2018-02-04T07:18:12.112Z,1003.66
2018-02-04T07:19:12.045Z,1003.71
2018-02-04T07:20:11.975Z,1003.70
2018-02-04T07:21:11.907Z,1003.72
2018-02-04T07:22:11.839Z,1003.73
2018-02-04T07:23:11.770Z,1003.79
2018-02-04T07:24:11.702Z,1003.83
2018-02-04T07:25:11.634Z,1003.81
2018-02-04T07:26:11.566Z,1003.83
2018-02-04T07:27:11.498Z,1003.87
2018-02-04T07:28:11.431Z,1003.82
2018-02-04T07:29:11.361Z,1003.84
2018-02-04T07:30:11.294Z,1003.88
2018-02-04T07:31:11.227Z,1003.87
2018-02-04T07:32:11.158Z,1003.91
2018-02-04T07:33:11.088Z,1003.92
2018-02-04T07:34:11.021Z,1003.92
2018-02-04T07:35:10.953Z,1003.95
2018-02-04T07:36:10.926Z,1003.94
2018-02-04T07:37:10.816Z,1003.98
2018-02-04T07:38:10.749Z,1003.97
2018-02-04T07:39:10.680Z,1003.99
2018-02-04T07:40:10.613Z,1003.99
2018-02-04T07:41:10.543Z,1004.00
2018-02-04T07:42:10.476Z,1004.02
2018-02-04T07:43:10.410Z,1004.03
2018-02-04T07:44:10.340Z,1004.03
2018-02-04T07:45:10.271Z,1004.05
2018-02-04T07:46:10.204Z,1004.00
2018-02-04T07:47:10.136Z,1004.00
2018-02-04T07:48:10.068Z,1004.03
2018-02-04T07:49:09.999Z,1004.05
2018-02-04T07:50:09.931Z,1004.07
2018-02-04T07:51:09.864Z,1004.05
2018-02-04T07:52:09.794Z,1004.14
2018-02-04T07:53:09.726Z,1004.11
2018-02-04T07:54:09.662Z,1004.14
2018-02-04T07:55:09.590Z,1004.14
2018-02-04T07:56:09.522Z,1004.17
2018-02-04T07:57:09.454Z,1004.15
2018-02-04T07:58:09.387Z,1004.17
2018-02-04T07:59:09.323Z,1004.20
2018-02-04T08:00:09.251Z,1004.20
2018-02-04T08:01:09.183Z,1004.16
2018-02-04T08:02:09.114Z,1004.19
2018-02-04T08:03:09.047Z,1004.26
2018-02-04T08:04:08.978Z,1004.27
2018-02-04T08:05:08.912Z,1004.28
2018-02-04T08:06:08.848Z,1004.30
2018-02-04T08:07:08.775Z,1004.31
2018-02-04T08:08:08.706Z,1004.34
2018-02-04T08:09:08.638Z,1004.31
2018-02-04T08:10:08.570Z,1004.34
2018-02-04T08:11:08.504Z,1004.32
2018-02-04T08:12:08.435Z,1004.36
2018-02-04T08:13:08.366Z,1004.37
2018-02-04T08:14:08.298Z,1004.37
2018-02-04T08:15:08.230Z,1004.39
2018-02-04T08:16:08.161Z,1004.38
2018-02-04T08:17:08.094Z,1004.40
2018-02-04T08:18:08.025Z,1004.40
2018-02-04T08:19:07.962Z,1004.41
2018-02-04T08:20:07.889Z,1004.41
2018-02-04T08:21:07.821Z,1004.41
2018-02-04T08:22:07.753Z,1004.39
2018-02-04T08:23:07.685Z,1004.42
2018-02-04T08:24:07.616Z,1004.44
2018-02-04T08:25:07.548Z,1004.43
2018-02-04T08:26:07.479Z,1004.46
2018-02-04T08:27:07.413Z,1004.48
2018-02-04T08:28:07.342Z,1004.50
2018-02-04T08:29:07.274Z,1004.48
2018-02-04T08:30:07.208Z,1004.49
2018-02-04T08:31:07.139Z,1004.56
2018-02-04T08:32:07.070Z,1004.51
2018-02-04T08:33:07.002Z,1004.53
2018-02-04T08:34:06.932Z,1004.57
2018-02-04T08:35:06.866Z,1004.57
2018-02-04T08:36:06.796Z,1004.56
2018-02-04T08:37:06.727Z,1004.59
2018-02-04T08:38:06.661Z,1004.62
2018-02-04T08:39:06.590Z,1004.64
2018-02-04T08:40:06.520Z,1004.65
2018-02-04T08:41:06.455Z,1004.69
2018-02-04T08:42:06.385Z,1004.68
2018-02-04T08:43:06.319Z,1004.66
2018-02-04T08:44:06.248Z,1004.68
2018-02-04T08:45:06.179Z,1004.67
2018-02-04T08:46:06.110Z,1004.65
2018-02-04T08:47:06.044Z,1004.67
2018-02-04T08:48:05.972Z,1004.68
2018-02-04T08:49:05.904Z,1004.70
2018-02-04T08:50:05.836Z,1004.70
2018-02-04T08:51:05.767Z,1004.70
2018-02-04T08:52:05.698Z,1004.69
2018-02-04T08:53:05.629Z,1004.71
2018-02-04T08:54:05.560Z,1004.77
2018-02-04T08:55:05.493Z,1004.74
2018-02-04T08:56:05.424Z,1004.78
2018-02-04T08:57:05.353Z,1004.76
2018-02-04T08:58:05.284Z,1004.81
2018-02-04T08:59:05.223Z,1004.79
2018-02-04T09:00:05.146Z,1004.74
2018-02-04T09:01:05.078Z,1004.77
2018-02-04T09:02:05.009Z,1004.77
2018-02-04T09:03:04.940Z,1004.78
2018-02-04T09:04:04.873Z,1004.75
2018-02-04T09:05:04.803Z,1004.78
2018-02-04T09:06:04.763Z,1004.80
2018-02-04T09:07:04.667Z,1004.84
2018-02-04T09:08:04.595Z,1004.81
2018-02-04T09:09:04.526Z,1004.82
2018-02-04T09:10:04.458Z,1004.80
2018-02-04T09:11:04.390Z,1004.84
2018-02-04T09:12:04.319Z,1004.86
2018-02-04T09:13:04.250Z,1004.83
2018-02-04T09:14:04.181Z,1004.88
2018-02-04T09:15:04.113Z,1004.87
2018-02-04T09:16:04.044Z,1004.90
2018-02-04T09:17:03.974Z,1004.95
2018-02-04T09:18:03.906Z,1004.92
2018-02-04T09:19:03.838Z,1004.95
2018-02-04T09:20:03.767Z,1004.98
2018-02-04T09:21:03.698Z,1005.05
2018-02-04T09:22:03.631Z,1005.04
2018-02-04T09:23:03.562Z,1005.06
2018-02-04T09:24:03.492Z,1005.07
2018-02-04T09:25:03.425Z,1005.10
2018-02-04T09:26:03.358Z,1005.11
2018-02-04T09:27:03.284Z,1005.11
2018-02-04T09:28:03.219Z,1005.14
2018-02-04T09:29:03.147Z,1005.14
2018-02-04T09:30:03.078Z,1005.17
2018-02-04T09:31:03.010Z,1005.19
2018-02-04T09:32:02.940Z,1005.19
2018-02-04T09:33:02.871Z,1005.19
2018-02-04T09:34:02.803Z,1005.18
2018-02-04T09:35:02.734Z,1005.20
2018-02-04T09:36:02.665Z,1005.29
2018-02-04T09:37:02.595Z,1005.26
2018-02-04T09:38:02.527Z,1005.30
2018-02-04T09:39:02.460Z,1005.29
2018-02-04T09:40:02.388Z,1005.33
2018-02-04T09:41:02.320Z,1005.45
2018-02-04T09:42:02.251Z,1005.45
2018-02-04T09:43:02.182Z,1005.45
2018-02-04T09:44:02.112Z,1005.47
2018-02-04T09:45:02.045Z,1005.54
2018-02-04T09:46:01.978Z,1005.50
2018-02-04T09:47:01.907Z,1005.60
2018-02-04T09:48:01.837Z,1005.61
2018-02-04T09:49:01.768Z,1005.66
2018-02-04T09:50:01.699Z,1005.67
2018-02-04T09:51:01.629Z,1005.71
2018-02-04T09:52:01.559Z,1005.75
2018-02-04T09:53:01.493Z,1005.77
2018-02-04T09:54:01.421Z,1005.78
2018-02-04T09:55:01.352Z,1005.80
2018-02-04T09:56:01.282Z,1005.82
2018-02-04T09:57:01.213Z,1005.81
2018-02-04T09:58:01.143Z,1005.86
2018-02-04T09:59:01.075Z,1005.90
2018-02-04T10:00:01.011Z,1005.93
2018-02-04T10:01:00.935Z,1005.98
2018-02-04T10:02:00.910Z,1005.95
2018-02-04T10:03:00.797Z,1006.04
2018-02-04T10:04:00.726Z,1006.08
2018-02-04T10:05:00.658Z,1006.04
2018-02-04T10:06:00.589Z,1006.14
2018-02-04T10:07:00.520Z,1006.14
2018-02-04T10:08:00.449Z,1006.21
2018-02-04T10:09:00.383Z,1006.23
2018-02-04T10:10:00.317Z,1006.25
2018-02-04T10:11:00.242Z,1006.26
2018-02-04T10:12:00.173Z,1006.33
2018-02-04T10:13:00.103Z,1006.37
2018-02-04T10:14:00.036Z,1006.43
2018-02-04T10:14:59.966Z,1006.38
2018-02-04T10:15:59.996Z,1006.41
2018-02-04T10:16:59.827Z,1006.43
2018-02-04T10:17:59.758Z,1006.46
2018-02-04T10:18:59.691Z,1006.48
2018-02-04T10:19:59.621Z,1006.51
2018-02-04T10:20:59.561Z,1006.50
2018-02-04T10:21:59.482Z,1006.61
2018-02-04T10:22:59.414Z,1006.51
2018-02-04T10:23:59.346Z,1006.49
2018-02-04T10:24:59.277Z,1006.60
2018-02-04T10:25:59.210Z,1006.52
2018-02-04T10:26:59.145Z,1006.48
2018-02-04T10:27:59.076Z,1006.73
2018-02-04T10:28:59.004Z,1006.70
2018-02-04T10:29:58.937Z,1006.45
2018-02-04T10:30:58.868Z,1006.41
2018-02-04T10:31:58.800Z,1006.47
2018-02-04T10:32:58.732Z,1006.48
2018-02-04T10:33:58.664Z,1006.46
2018-02-04T10:34:58.595Z,1006.55
2018-02-04T10:35:58.526Z,1006.38
2018-02-04T10:36:58.458Z,1006.50
2018-02-04T10:37:58.391Z,1006.43
2018-02-04T10:38:58.321Z,1006.38
2018-02-04T10:39:58.252Z,1006.45
2018-02-04T10:40:58.184Z,1006.51
2018-02-04T10:41:58.117Z,1006.48
2018-02-04T10:42:58.050Z,1006.53
2018-02-04T10:43:57.980Z,1006.44
2018-02-04T10:44:57.912Z,1006.50
2018-02-04T10:45:57.843Z,1006.53
2018-02-04T10:46:57.774Z,1006.62
2018-02-04T10:47:57.706Z,1006.57
2018-02-04T10:48:57.641Z,1006.70
2018-02-04T10:49:57.571Z,1006.88
2018-02-04T10:50:57.501Z,1006.79
2018-02-04T10:51:57.432Z,1006.73
2018-02-04T10:52:57.364Z,1006.89
2018-02-04T10:53:57.296Z,1006.78
2018-02-04T10:54:57.229Z,1006.94
2018-02-04T10:55:57.159Z,1006.85
2018-02-04T10:56:57.090Z,1006.93
2018-02-04T10:57:57.025Z,1006.95
2018-02-04T10:58:56.955Z,1006.83
2018-02-04T10:59:56.886Z,1006.82
2018-02-04T11:00:56.824Z,1006.85
2018-02-04T11:01:56.749Z,1006.76
2018-02-04T11:02:56.681Z,1006.95
2018-02-04T11:03:56.614Z,1006.98
2018-02-04T11:04:56.548Z,1006.94
2018-02-04T11:05:56.478Z,1006.88
2018-02-04T11:06:56.410Z,1006.96
2018-02-04T11:07:56.341Z,1006.91
2018-02-04T11:08:56.273Z,1006.96
2018-02-04T11:09:56.208Z,1006.92
2018-02-04T11:10:56.139Z,1006.97
2018-02-04T11:11:56.069Z,1006.86
2018-02-04T11:12:56.077Z,1006.88
2018-02-04T11:13:55.934Z,1006.91
2018-02-04T11:14:55.867Z,1006.97
2018-02-04T11:15:55.802Z,1006.93
2018-02-04T11:16:55.729Z,1006.91
2018-02-04T11:17:55.663Z,1006.89
2018-02-04T11:18:55.594Z,1006.90
2018-02-04T11:19:55.527Z,1006.84
2018-02-04T11:20:55.458Z,1006.88
2018-02-04T11:21:55.438Z,1006.97
2018-02-04T11:22:55.323Z,1006.87
2018-02-04T11:23:55.253Z,1006.84
2018-02-04T11:24:55.186Z,1006.87
2018-02-04T11:25:55.119Z,1006.85
2018-02-04T11:26:55.051Z,1006.81
2018-02-04T11:27:54.983Z,1006.89
2018-02-04T11:28:54.914Z,1006.87
2018-02-04T11:29:54.847Z,1006.84
2018-02-04T11:30:54.780Z,1006.84
2018-02-04T11:31:54.712Z,1006.83
2018-02-04T11:32:54.644Z,1006.87
2018-02-04T11:33:54.576Z,1006.82
2018-02-04T11:34:54.509Z,1006.88
2018-02-04T11:35:54.440Z,1006.89
2018-02-04T11:36:54.373Z,1006.91
2018-02-04T11:37:54.304Z,1006.89
2018-02-04T11:38:54.235Z,1006.91
2018-02-04T11:39:54.168Z,1006.90
2018-02-04T11:40:54.099Z,1006.88
2018-02-04T11:41:54.033Z,1006.93
2018-02-04T11:42:53.965Z,1006.87
2018-02-04T11:43:53.895Z,1006.95
2018-02-04T11:44:53.829Z,1006.99
2018-02-04T11:45:53.760Z,1006.95
2018-02-04T11:46:53.692Z,1006.93
2018-02-04T11:47:53.624Z,1006.99
2018-02-04T11:48:53.555Z,1007.01
2018-02-04T11:49:53.487Z,1006.98
2018-02-04T11:50:53.419Z,1007.01
2018-02-04T11:51:53.350Z,1006.98
2018-02-04T11:52:53.307Z,1006.99
2018-02-04T11:53:53.215Z,1006.99
2018-02-04T11:54:53.146Z,1006.99
2018-02-04T11:55:53.081Z,1007.01
2018-02-04T11:56:53.011Z,1007.00
2018-02-04T11:57:52.944Z,1006.98
2018-02-04T11:58:52.876Z,1007.01
2018-02-04T11:59:52.806Z,1007.06
2018-02-04T12:00:52.739Z,1007.11
2018-02-04T12:01:52.671Z,1007.07
2018-02-04T12:02:52.604Z,1007.10
2018-02-04T12:03:52.536Z,1007.13
2018-02-04T12:04:52.467Z,1007.15
2018-02-04T12:05:52.398Z,1007.12
2018-02-04T12:06:52.331Z,1007.22